IBS1605 LEMD-GCLP
Flight info
| Callsign | IBS1605 |
|---|---|
| Flight time | 2h 45m |
| Altitude | 35000 |
| Route | VTB2N VTB DCT INPAN DCT CRISA DCT HIJ DCT SVL DCT CLANA/N0454F370 DCT KORNO UN857 TERTO TERTO9Z |
| Aircraft | A320/M-SDE3FGHIRWY/LB1 |
Departure
| Time | 2026-05-06 11:34 |
|---|---|
| Airport | Adolfo Suárez Madrid–Barajas Airport (LEMD) |
Arrival
| Time | 2026-05-06 14:19 |
|---|---|
| Airport | Gran Canaria Airport (GCLP) |
| Time | Latitude | Longitude | Altitude | Speed | Heading |
|---|---|---|---|---|---|
| 2026-05-06 11:06 | 40.49311 | -3.58981 | 1981 ft | 0 kts | 269° |
| 2026-05-06 11:25 | 40.49311 | -3.58980 | 1980 ft | 1 kts | 269° |
| 2026-05-06 11:25 | 40.49313 | -3.58948 | 1982 ft | 4 kts | 257° |
| 2026-05-06 11:25 | 40.49323 | -3.58917 | 1980 ft | 4 kts | 226° |
| 2026-05-06 11:25 | 40.49340 | -3.58903 | 1980 ft | 1 kts | 180° |
| 2026-05-06 11:26 | 40.49344 | -3.58903 | 1980 ft | 0 kts | 180° |
| 2026-05-06 11:29 | 40.49334 | -3.58903 | 1980 ft | 5 kts | 180° |
| 2026-05-06 11:30 | 40.49297 | -3.58903 | 1980 ft | 5 kts | 180° |
| 2026-05-06 11:30 | 40.49264 | -3.58900 | 1980 ft | 7 kts | 166° |
| 2026-05-06 11:30 | 40.49241 | -3.58824 | 1983 ft | 10 kts | 91° |
| 2026-05-06 11:30 | 40.49241 | -3.58705 | 1981 ft | 16 kts | 90° |
| 2026-05-06 11:31 | 40.49242 | -3.58556 | 1983 ft | 15 kts | 90° |
| 2026-05-06 11:31 | 40.49241 | -3.58402 | 1983 ft | 21 kts | 94° |
| 2026-05-06 11:31 | 40.49244 | -3.58211 | 1980 ft | 21 kts | 92° |
| 2026-05-06 11:31 | 40.49244 | -3.58013 | 1980 ft | 22 kts | 89° |
| 2026-05-06 11:32 | 40.49245 | -3.57807 | 1980 ft | 23 kts | 90° |
| 2026-05-06 11:32 | 40.49248 | -3.57643 | 1980 ft | 15 kts | 82° |
| 2026-05-06 11:32 | 40.49293 | -3.57533 | 1980 ft | 13 kts | 46° |
| 2026-05-06 11:32 | 40.49361 | -3.57472 | 1982 ft | 11 kts | 21° |
| 2026-05-06 11:33 | 40.49428 | -3.57464 | 1980 ft | 8 kts | 360° |
| 2026-05-06 11:33 | 40.49434 | -3.57464 | 1982 ft | 4 kts | 0° |
| 2026-05-06 11:33 | 40.49723 | -3.57466 | 1980 ft | 78 kts | 360° |
| 2026-05-06 11:33 | 40.50472 | -3.57471 | 1981 ft | 135 kts | 360° |
| 2026-05-06 11:34 | 40.51567 | -3.57477 | 2010 ft | 176 kts | 0° |
| 2026-05-06 11:34 | 40.52806 | -3.57476 | 2585 ft | 181 kts | 359° |
| 2026-05-06 11:34 | 40.54084 | -3.57489 | 3200 ft | 187 kts | 359° |
| 2026-05-06 11:34 | 40.55455 | -3.57420 | 3489 ft | 209 kts | 11° |
| 2026-05-06 11:35 | 40.56931 | -3.56851 | 3736 ft | 234 kts | 19° |
| 2026-05-06 11:35 | 40.58543 | -3.56169 | 4311 ft | 246 kts | 17° |
| 2026-05-06 11:35 | 40.60175 | -3.55556 | 5258 ft | 244 kts | 15° |
| 2026-05-06 11:35 | 40.61818 | -3.54966 | 6104 ft | 245 kts | 15° |
| 2026-05-06 11:36 | 40.63478 | -3.54398 | 6940 ft | 246 kts | 11° |
| 2026-05-06 11:36 | 40.65179 | -3.54148 | 7737 ft | 248 kts | 2° |
| 2026-05-06 11:36 | 40.66899 | -3.54034 | 8588 ft | 248 kts | 2° |
| 2026-05-06 11:36 | 40.68625 | -3.53836 | 9375 ft | 251 kts | 13° |
| 2026-05-06 11:37 | 40.70235 | -3.52922 | 10120 ft | 256 kts | 33° |
| 2026-05-06 11:37 | 40.71628 | -3.51332 | 10470 ft | 277 kts | 50° |
| 2026-05-06 11:37 | 40.72748 | -3.49226 | 11121 ft | 282 kts | 56° |
| 2026-05-06 11:37 | 40.73847 | -3.47069 | 11867 ft | 285 kts | 56° |
| 2026-05-06 11:38 | 40.74956 | -3.44891 | 12618 ft | 288 kts | 56° |
| 2026-05-06 11:38 | 40.75905 | -3.42561 | 13330 ft | 291 kts | 71° |
| 2026-05-06 11:38 | 40.76223 | -3.39951 | 13999 ft | 296 kts | 91° |
| 2026-05-06 11:38 | 40.75838 | -3.37269 | 14611 ft | 301 kts | 111° |
| 2026-05-06 11:39 | 40.74777 | -3.34882 | 15220 ft | 305 kts | 127° |
| 2026-05-06 11:39 | 40.73485 | -3.32639 | 15827 ft | 309 kts | 127° |
| 2026-05-06 11:39 | 40.72070 | -3.30486 | 16420 ft | 313 kts | 139° |
| 2026-05-06 11:39 | 40.70256 | -3.28886 | 17026 ft | 317 kts | 156° |
| 2026-05-06 11:40 | 40.68133 | -3.27998 | 17361 ft | 329 kts | 173° |
| 2026-05-06 11:40 | 40.65795 | -3.27961 | 17507 ft | 344 kts | 189° |
| 2026-05-06 11:40 | 40.63363 | -3.28415 | 17645 ft | 362 kts | 189° |
| 2026-05-06 11:40 | 40.60809 | -3.28872 | 17785 ft | 379 kts | 189° |
| 2026-05-06 11:41 | 40.58138 | -3.29328 | 17972 ft | 393 kts | 189° |
| 2026-05-06 11:41 | 40.55403 | -3.29779 | 18395 ft | 399 kts | 189° |
| 2026-05-06 11:41 | 40.52675 | -3.30223 | 18853 ft | 402 kts | 189° |
| 2026-05-06 11:41 | 40.49856 | -3.30684 | 19367 ft | 404 kts | 189° |
| 2026-05-06 11:42 | 40.47063 | -3.31147 | 19885 ft | 406 kts | 190° |
| 2026-05-06 11:42 | 40.44291 | -3.31612 | 20391 ft | 407 kts | 190° |
| 2026-05-06 11:42 | 40.41472 | -3.32086 | 20897 ft | 408 kts | 191° |
| 2026-05-06 11:42 | 40.38657 | -3.32559 | 21451 ft | 408 kts | 191° |
| 2026-05-06 11:43 | 40.35831 | -3.33034 | 21956 ft | 410 kts | 191° |
| 2026-05-06 11:43 | 40.32998 | -3.33511 | 22439 ft | 411 kts | 191° |
| 2026-05-06 11:43 | 40.30151 | -3.33987 | 22909 ft | 413 kts | 192° |
| 2026-05-06 11:44 | 40.24422 | -3.34960 | 23774 ft | 416 kts | 193° |
| 2026-05-06 11:44 | 40.21559 | -3.35567 | 24147 ft | 417 kts | 194° |
| 2026-05-06 11:44 | 40.18702 | -3.36268 | 24494 ft | 418 kts | 195° |
| 2026-05-06 11:44 | 40.15853 | -3.37016 | 24864 ft | 419 kts | 196° |
| 2026-05-06 11:45 | 40.12992 | -3.37779 | 25219 ft | 420 kts | 196° |
| 2026-05-06 11:45 | 40.10117 | -3.38535 | 25570 ft | 422 kts | 196° |
| 2026-05-06 11:45 | 40.07227 | -3.39274 | 25924 ft | 424 kts | 195° |
| 2026-05-06 11:45 | 40.04319 | -3.40000 | 26269 ft | 426 kts | 195° |
| 2026-05-06 11:46 | 40.01402 | -3.40715 | 26600 ft | 428 kts | 195° |
| 2026-05-06 11:46 | 39.98466 | -3.41428 | 26923 ft | 430 kts | 195° |
| 2026-05-06 11:46 | 39.95521 | -3.42145 | 27229 ft | 431 kts | 195° |
| 2026-05-06 11:46 | 39.92565 | -3.42867 | 27554 ft | 432 kts | 195° |
| 2026-05-06 11:47 | 39.89601 | -3.43589 | 27863 ft | 434 kts | 195° |
| 2026-05-06 11:47 | 39.86627 | -3.44315 | 28144 ft | 436 kts | 195° |
| 2026-05-06 11:47 | 39.83634 | -3.45045 | 28432 ft | 438 kts | 195° |
| 2026-05-06 11:47 | 39.80682 | -3.45960 | 28712 ft | 434 kts | 203° |
| 2026-05-06 11:48 | 39.77975 | -3.47543 | 28983 ft | 430 kts | 214° |
| 2026-05-06 11:48 | 39.75564 | -3.49793 | 29364 ft | 424 kts | 225° |
| 2026-05-06 11:48 | 39.73461 | -3.52450 | 29760 ft | 421 kts | 228° |
| 2026-05-06 11:48 | 39.71399 | -3.55146 | 30152 ft | 420 kts | 228° |
| 2026-05-06 11:49 | 39.69356 | -3.57843 | 30504 ft | 418 kts | 228° |
| 2026-05-06 11:49 | 39.67323 | -3.60534 | 30843 ft | 417 kts | 228° |
| 2026-05-06 11:49 | 39.65296 | -3.63214 | 31198 ft | 415 kts | 228° |
| 2026-05-06 11:49 | 39.63274 | -3.65880 | 31560 ft | 414 kts | 228° |
| 2026-05-06 11:50 | 39.61252 | -3.68537 | 31910 ft | 413 kts | 228° |
| 2026-05-06 11:50 | 39.59234 | -3.71180 | 32261 ft | 411 kts | 228° |
| 2026-05-06 11:50 | 39.57221 | -3.73811 | 32607 ft | 410 kts | 228° |
| 2026-05-06 11:50 | 39.55216 | -3.76430 | 32951 ft | 409 kts | 228° |
| 2026-05-06 11:51 | 39.53216 | -3.79045 | 33279 ft | 408 kts | 228° |
| 2026-05-06 11:51 | 39.51223 | -3.81651 | 33623 ft | 406 kts | 228° |
| 2026-05-06 11:51 | 39.49237 | -3.84241 | 34022 ft | 404 kts | 228° |
| 2026-05-06 11:51 | 39.47257 | -3.86820 | 34294 ft | 403 kts | 228° |
| 2026-05-06 11:52 | 39.45282 | -3.89392 | 34506 ft | 404 kts | 228° |
| 2026-05-06 11:52 | 39.43301 | -3.91976 | 34745 ft | 404 kts | 228° |
| 2026-05-06 11:52 | 39.41347 | -3.94521 | 34903 ft | 405 kts | 227° |
| 2026-05-06 11:52 | 39.39356 | -3.97105 | 34951 ft | 406 kts | 227° |
| 2026-05-06 11:53 | 39.35361 | -4.02292 | 34950 ft | 407 kts | 227° |
| 2026-05-06 11:53 | 39.31369 | -4.07474 | 34947 ft | 407 kts | 227° |
| 2026-05-06 11:54 | 39.27363 | -4.12653 | 34938 ft | 407 kts | 227° |
| 2026-05-06 11:54 | 39.23380 | -4.17792 | 34953 ft | 404 kts | 227° |
| 2026-05-06 11:55 | 39.19404 | -4.22914 | 34952 ft | 404 kts | 227° |
| 2026-05-06 11:55 | 39.15426 | -4.28029 | 34958 ft | 404 kts | 227° |
| 2026-05-06 11:56 | 39.11450 | -4.33139 | 34952 ft | 404 kts | 227° |
| 2026-05-06 11:56 | 39.07473 | -4.38242 | 34953 ft | 404 kts | 227° |
| 2026-05-06 11:57 | 39.03496 | -4.43338 | 34919 ft | 404 kts | 227° |
| 2026-05-06 11:57 | 38.99524 | -4.48420 | 34961 ft | 402 kts | 227° |
| 2026-05-06 11:58 | 38.95560 | -4.53462 | 34971 ft | 400 kts | 227° |
| 2026-05-06 11:58 | 38.91609 | -4.58491 | 34977 ft | 399 kts | 227° |
| 2026-05-06 11:59 | 38.87662 | -4.63522 | 34954 ft | 400 kts | 227° |
| 2026-05-06 11:59 | 38.83704 | -4.68548 | 34950 ft | 400 kts | 227° |
| 2026-05-06 12:00 | 38.79737 | -4.73565 | 34953 ft | 401 kts | 227° |
| 2026-05-06 12:00 | 38.75770 | -4.78578 | 34957 ft | 400 kts | 227° |
| 2026-05-06 12:01 | 38.71839 | -4.83541 | 34961 ft | 399 kts | 227° |
| 2026-05-06 12:01 | 38.67886 | -4.88534 | 34963 ft | 398 kts | 227° |
| 2026-05-06 12:02 | 38.63936 | -4.93503 | 34955 ft | 398 kts | 227° |
| 2026-05-06 12:02 | 38.59986 | -4.98470 | 34946 ft | 399 kts | 227° |
| 2026-05-06 12:03 | 38.56015 | -5.03455 | 34942 ft | 400 kts | 227° |
| 2026-05-06 12:03 | 38.52027 | -5.08405 | 34933 ft | 400 kts | 223° |
| 2026-05-06 12:04 | 38.47283 | -5.12177 | 34946 ft | 405 kts | 210° |
| 2026-05-06 12:04 | 38.42207 | -5.15325 | 34952 ft | 405 kts | 210° |
| 2026-05-06 12:05 | 38.37174 | -5.18452 | 34960 ft | 405 kts | 210° |
| 2026-05-06 12:05 | 38.32115 | -5.21595 | 34956 ft | 404 kts | 210° |
| 2026-05-06 12:06 | 38.27054 | -5.24723 | 34951 ft | 404 kts | 210° |
| 2026-05-06 12:06 | 38.21990 | -5.27852 | 34948 ft | 404 kts | 210° |
| 2026-05-06 12:07 | 38.16932 | -5.30974 | 34949 ft | 404 kts | 210° |
| 2026-05-06 12:07 | 38.11870 | -5.34091 | 34966 ft | 405 kts | 210° |
| 2026-05-06 12:08 | 38.06793 | -5.37219 | 34901 ft | 406 kts | 210° |
| 2026-05-06 12:08 | 38.01712 | -5.40355 | 34930 ft | 406 kts | 210° |
| 2026-05-06 12:09 | 37.96625 | -5.43480 | 34940 ft | 406 kts | 210° |
| 2026-05-06 12:09 | 37.91542 | -5.46578 | 34944 ft | 405 kts | 210° |
| 2026-05-06 12:10 | 37.86464 | -5.49681 | 34946 ft | 405 kts | 210° |
| 2026-05-06 12:10 | 37.81389 | -5.52781 | 34927 ft | 405 kts | 210° |
| 2026-05-06 12:11 | 37.76353 | -5.55853 | 34942 ft | 404 kts | 210° |
| 2026-05-06 12:11 | 37.71294 | -5.58936 | 34948 ft | 404 kts | 210° |
| 2026-05-06 12:12 | 37.66233 | -5.62011 | 34949 ft | 403 kts | 210° |
| 2026-05-06 12:12 | 37.61183 | -5.65080 | 34951 ft | 403 kts | 210° |
| 2026-05-06 12:13 | 37.56129 | -5.68144 | 34923 ft | 402 kts | 210° |
| 2026-05-06 12:13 | 37.51085 | -5.71192 | 34949 ft | 402 kts | 210° |
| 2026-05-06 12:14 | 37.46036 | -5.74242 | 34947 ft | 402 kts | 210° |
| 2026-05-06 12:14 | 37.42001 | -5.77085 | 34944 ft | 397 kts | 220° |
| 2026-05-06 12:15 | 37.37096 | -5.82265 | 34944 ft | 396 kts | 223° |
| 2026-05-06 12:15 | 37.32889 | -5.86746 | 34923 ft | 396 kts | 223° |
| 2026-05-06 12:16 | 37.29389 | -5.90465 | 34934 ft | 396 kts | 223° |
| 2026-05-06 12:16 | 37.25180 | -5.94933 | 34939 ft | 396 kts | 223° |
| 2026-05-06 12:17 | 37.20969 | -5.99390 | 34944 ft | 396 kts | 223° |
| 2026-05-06 12:17 | 37.16752 | -6.03851 | 34946 ft | 396 kts | 223° |
| 2026-05-06 12:18 | 37.12547 | -6.08301 | 34947 ft | 395 kts | 223° |
| 2026-05-06 12:18 | 37.08336 | -6.12742 | 34946 ft | 396 kts | 222° |
| 2026-05-06 12:19 | 37.04122 | -6.17181 | 34915 ft | 396 kts | 222° |
| 2026-05-06 12:19 | 36.99909 | -6.21609 | 34925 ft | 395 kts | 222° |
| 2026-05-06 12:20 | 36.95687 | -6.26037 | 34934 ft | 395 kts | 222° |
| 2026-05-06 12:20 | 36.91501 | -6.30428 | 34942 ft | 395 kts | 222° |
| 2026-05-06 12:21 | 36.87283 | -6.34844 | 34954 ft | 395 kts | 222° |
| 2026-05-06 12:21 | 36.83065 | -6.39255 | 34960 ft | 396 kts | 222° |
| 2026-05-06 12:22 | 36.78843 | -6.43665 | 34953 ft | 395 kts | 222° |
| 2026-05-06 12:22 | 36.74625 | -6.48068 | 34971 ft | 395 kts | 222° |
| 2026-05-06 12:23 | 36.70407 | -6.52465 | 34966 ft | 396 kts | 222° |
| 2026-05-06 12:23 | 36.66170 | -6.56865 | 34964 ft | 396 kts | 222° |
| 2026-05-06 12:24 | 36.61931 | -6.61263 | 34964 ft | 397 kts | 222° |
| 2026-05-06 12:24 | 36.57691 | -6.65656 | 34967 ft | 397 kts | 222° |
| 2026-05-06 12:25 | 36.53446 | -6.70053 | 34964 ft | 397 kts | 222° |
| 2026-05-06 12:25 | 36.49203 | -6.74437 | 35009 ft | 397 kts | 222° |
| 2026-05-06 12:26 | 36.47108 | -6.76597 | 35275 ft | 396 kts | 222° |
| 2026-05-06 12:26 | 36.44987 | -6.78779 | 35522 ft | 396 kts | 222° |
| 2026-05-06 12:26 | 36.42861 | -6.80964 | 35734 ft | 397 kts | 222° |
| 2026-05-06 12:26 | 36.40733 | -6.83151 | 35935 ft | 397 kts | 222° |
| 2026-05-06 12:27 | 36.38602 | -6.85348 | 36135 ft | 398 kts | 222° |
| 2026-05-06 12:27 | 36.36470 | -6.87551 | 36277 ft | 400 kts | 222° |
| 2026-05-06 12:27 | 36.34326 | -6.89763 | 36444 ft | 401 kts | 222° |
| 2026-05-06 12:27 | 36.32180 | -6.91973 | 36626 ft | 402 kts | 222° |
| 2026-05-06 12:28 | 36.30017 | -6.94191 | 36800 ft | 402 kts | 222° |
| 2026-05-06 12:28 | 36.27858 | -6.96398 | 36955 ft | 402 kts | 222° |
| 2026-05-06 12:28 | 36.23537 | -7.00799 | 36996 ft | 402 kts | 222° |
| 2026-05-06 12:29 | 36.19230 | -7.05205 | 36996 ft | 401 kts | 222° |
| 2026-05-06 12:29 | 36.14927 | -7.09607 | 36997 ft | 401 kts | 222° |
| 2026-05-06 12:30 | 36.10616 | -7.14000 | 36998 ft | 401 kts | 222° |
| 2026-05-06 12:30 | 36.06300 | -7.18389 | 37005 ft | 402 kts | 222° |
| 2026-05-06 12:31 | 36.02012 | -7.22756 | 36996 ft | 402 kts | 222° |
| 2026-05-06 12:31 | 35.97687 | -7.27152 | 36998 ft | 402 kts | 222° |
| 2026-05-06 12:32 | 35.93357 | -7.31536 | 37001 ft | 402 kts | 222° |
| 2026-05-06 12:32 | 35.89025 | -7.35908 | 37006 ft | 402 kts | 222° |
| 2026-05-06 12:33 | 35.84689 | -7.40284 | 37010 ft | 402 kts | 222° |
| 2026-05-06 12:33 | 35.80349 | -7.44657 | 37014 ft | 403 kts | 222° |
| 2026-05-06 12:34 | 35.75998 | -7.49001 | 37013 ft | 402 kts | 221° |
| 2026-05-06 12:34 | 35.71648 | -7.53333 | 37013 ft | 402 kts | 221° |
| 2026-05-06 12:35 | 35.67287 | -7.57666 | 37017 ft | 403 kts | 221° |
| 2026-05-06 12:35 | 35.62956 | -7.61966 | 37022 ft | 403 kts | 221° |
| 2026-05-06 12:36 | 35.58597 | -7.66303 | 37015 ft | 404 kts | 221° |
| 2026-05-06 12:36 | 35.54224 | -7.70644 | 37007 ft | 404 kts | 221° |
| 2026-05-06 12:37 | 35.49846 | -7.74977 | 36985 ft | 404 kts | 221° |
| 2026-05-06 12:37 | 35.45466 | -7.79310 | 37002 ft | 404 kts | 221° |
| 2026-05-06 12:38 | 35.41088 | -7.83617 | 37011 ft | 404 kts | 221° |
| 2026-05-06 12:38 | 35.36728 | -7.87953 | 37015 ft | 403 kts | 222° |
| 2026-05-06 12:39 | 35.32394 | -7.92310 | 37017 ft | 403 kts | 222° |
| 2026-05-06 12:39 | 35.28048 | -7.96665 | 37018 ft | 403 kts | 222° |
| 2026-05-06 12:40 | 35.23700 | -8.01003 | 37021 ft | 404 kts | 222° |
| 2026-05-06 12:40 | 35.19371 | -8.05307 | 37022 ft | 403 kts | 222° |
| 2026-05-06 12:41 | 35.15021 | -8.09629 | 37030 ft | 403 kts | 222° |
| 2026-05-06 12:41 | 35.10668 | -8.13945 | 37029 ft | 402 kts | 222° |
| 2026-05-06 12:42 | 35.06325 | -8.18244 | 37033 ft | 402 kts | 221° |
| 2026-05-06 12:42 | 35.01979 | -8.22543 | 37028 ft | 401 kts | 222° |
| 2026-05-06 12:43 | 34.97641 | -8.26833 | 37026 ft | 401 kts | 221° |
| 2026-05-06 12:43 | 34.93308 | -8.31112 | 37004 ft | 400 kts | 222° |
| 2026-05-06 12:44 | 34.88988 | -8.35376 | 37011 ft | 399 kts | 222° |
| 2026-05-06 12:44 | 34.84664 | -8.39631 | 37008 ft | 400 kts | 221° |
| 2026-05-06 12:45 | 34.80336 | -8.43874 | 37009 ft | 400 kts | 221° |
| 2026-05-06 12:46 | 34.73858 | -8.50229 | 37017 ft | 400 kts | 221° |
| 2026-05-06 12:46 | 34.69516 | -8.54480 | 37018 ft | 400 kts | 221° |
| 2026-05-06 12:47 | 34.65179 | -8.58724 | 37008 ft | 400 kts | 221° |
| 2026-05-06 12:47 | 34.60839 | -8.62963 | 37022 ft | 400 kts | 221° |
| 2026-05-06 12:48 | 34.56500 | -8.67199 | 37032 ft | 400 kts | 221° |
| 2026-05-06 12:48 | 34.52174 | -8.71410 | 37032 ft | 400 kts | 221° |
| 2026-05-06 12:49 | 34.47824 | -8.75622 | 37026 ft | 400 kts | 221° |
| 2026-05-06 12:49 | 34.43467 | -8.79850 | 37022 ft | 401 kts | 221° |
| 2026-05-06 12:50 | 34.39101 | -8.84061 | 37010 ft | 401 kts | 221° |
| 2026-05-06 12:50 | 34.34731 | -8.88252 | 37020 ft | 401 kts | 221° |
| 2026-05-06 12:51 | 34.30363 | -8.92444 | 37023 ft | 400 kts | 221° |
| 2026-05-06 12:51 | 34.26011 | -8.96637 | 37027 ft | 400 kts | 221° |
| 2026-05-06 12:52 | 34.21643 | -9.00818 | 37027 ft | 400 kts | 221° |
| 2026-05-06 12:52 | 34.17305 | -9.04957 | 37025 ft | 400 kts | 221° |
| 2026-05-06 12:53 | 34.12941 | -9.09120 | 37003 ft | 400 kts | 221° |
| 2026-05-06 12:53 | 34.08571 | -9.13290 | 37012 ft | 400 kts | 221° |
| 2026-05-06 12:54 | 34.04203 | -9.17457 | 37016 ft | 400 kts | 221° |
| 2026-05-06 12:54 | 33.99826 | -9.21618 | 37020 ft | 401 kts | 221° |
| 2026-05-06 12:55 | 33.95444 | -9.25776 | 37025 ft | 401 kts | 221° |
| 2026-05-06 12:55 | 33.91060 | -9.29930 | 37030 ft | 401 kts | 221° |
| 2026-05-06 12:56 | 33.86677 | -9.34080 | 37032 ft | 401 kts | 221° |
| 2026-05-06 12:56 | 33.82295 | -9.38230 | 37020 ft | 401 kts | 221° |
| 2026-05-06 12:57 | 33.77911 | -9.42369 | 37035 ft | 400 kts | 221° |
| 2026-05-06 12:57 | 33.73536 | -9.46505 | 37037 ft | 400 kts | 221° |
| 2026-05-06 12:58 | 33.69176 | -9.50604 | 37033 ft | 401 kts | 221° |
| 2026-05-06 12:58 | 33.64781 | -9.54730 | 37032 ft | 401 kts | 221° |
| 2026-05-06 12:59 | 33.60383 | -9.58859 | 37033 ft | 402 kts | 221° |
| 2026-05-06 12:59 | 33.55982 | -9.62987 | 37014 ft | 401 kts | 221° |
| 2026-05-06 13:00 | 33.52323 | -9.66419 | 37027 ft | 401 kts | 221° |
| 2026-05-06 13:00 | 33.47926 | -9.70538 | 37040 ft | 401 kts | 221° |
| 2026-05-06 13:01 | 33.43538 | -9.74651 | 37044 ft | 400 kts | 221° |
| 2026-05-06 13:01 | 33.39142 | -9.78750 | 37036 ft | 400 kts | 221° |
| 2026-05-06 13:02 | 33.34745 | -9.82841 | 37037 ft | 400 kts | 221° |
| 2026-05-06 13:02 | 33.30343 | -9.86933 | 37027 ft | 401 kts | 221° |
| 2026-05-06 13:03 | 33.25934 | -9.91038 | 37003 ft | 401 kts | 221° |
| 2026-05-06 13:03 | 33.21529 | -9.95134 | 37022 ft | 402 kts | 221° |
| 2026-05-06 13:04 | 33.17111 | -9.99227 | 37022 ft | 402 kts | 221° |
| 2026-05-06 13:04 | 33.12695 | -10.03312 | 37027 ft | 402 kts | 221° |
| 2026-05-06 13:05 | 33.08276 | -10.07394 | 37031 ft | 402 kts | 221° |
| 2026-05-06 13:05 | 33.03858 | -10.11475 | 37027 ft | 402 kts | 221° |
| 2026-05-06 13:06 | 32.99470 | -10.15527 | 37038 ft | 402 kts | 221° |
| 2026-05-06 13:06 | 32.95040 | -10.19599 | 37029 ft | 402 kts | 221° |
| 2026-05-06 13:07 | 32.90613 | -10.23665 | 37017 ft | 403 kts | 221° |
| 2026-05-06 13:07 | 32.86170 | -10.27747 | 37016 ft | 404 kts | 221° |
| 2026-05-06 13:08 | 32.81721 | -10.31834 | 37021 ft | 404 kts | 221° |
| 2026-05-06 13:08 | 32.77265 | -10.35919 | 37016 ft | 405 kts | 221° |
| 2026-05-06 13:09 | 32.72795 | -10.39997 | 37017 ft | 405 kts | 221° |
| 2026-05-06 13:09 | 32.68331 | -10.44073 | 37009 ft | 405 kts | 221° |
| 2026-05-06 13:10 | 32.63868 | -10.48142 | 37023 ft | 404 kts | 221° |
| 2026-05-06 13:10 | 32.59406 | -10.52204 | 37026 ft | 404 kts | 221° |
| 2026-05-06 13:11 | 32.54948 | -10.56263 | 37031 ft | 404 kts | 221° |
| 2026-05-06 13:11 | 32.50488 | -10.60319 | 37029 ft | 405 kts | 221° |
| 2026-05-06 13:12 | 32.46005 | -10.64370 | 37022 ft | 406 kts | 221° |
| 2026-05-06 13:12 | 32.41517 | -10.68426 | 37009 ft | 406 kts | 220° |
| 2026-05-06 13:13 | 32.37067 | -10.72461 | 37020 ft | 406 kts | 220° |
| 2026-05-06 13:13 | 32.32583 | -10.76516 | 37030 ft | 405 kts | 220° |
| 2026-05-06 13:14 | 32.28104 | -10.80554 | 37032 ft | 405 kts | 220° |
| 2026-05-06 13:14 | 32.23628 | -10.84592 | 37034 ft | 405 kts | 220° |
| 2026-05-06 13:15 | 32.19150 | -10.88620 | 37039 ft | 405 kts | 220° |
| 2026-05-06 13:15 | 32.14673 | -10.92645 | 37044 ft | 404 kts | 220° |
| 2026-05-06 13:16 | 32.10194 | -10.96663 | 37025 ft | 404 kts | 220° |
| 2026-05-06 13:16 | 32.05710 | -11.00682 | 37021 ft | 405 kts | 220° |
| 2026-05-06 13:17 | 32.01219 | -11.04706 | 37024 ft | 405 kts | 220° |
| 2026-05-06 13:17 | 31.96726 | -11.08725 | 37026 ft | 406 kts | 220° |
| 2026-05-06 13:18 | 31.92228 | -11.12741 | 37029 ft | 406 kts | 220° |
| 2026-05-06 13:18 | 31.87730 | -11.16756 | 37030 ft | 406 kts | 220° |
| 2026-05-06 13:19 | 31.83230 | -11.20761 | 37020 ft | 405 kts | 220° |
| 2026-05-06 13:19 | 31.78745 | -11.24754 | 37047 ft | 403 kts | 220° |
| 2026-05-06 13:20 | 31.74306 | -11.28704 | 37050 ft | 402 kts | 220° |
| 2026-05-06 13:20 | 31.69856 | -11.32678 | 37047 ft | 402 kts | 220° |
| 2026-05-06 13:21 | 31.65391 | -11.36657 | 37023 ft | 403 kts | 220° |
| 2026-05-06 13:21 | 31.60913 | -11.40646 | 37019 ft | 404 kts | 220° |
| 2026-05-06 13:22 | 31.56434 | -11.44638 | 37019 ft | 405 kts | 220° |
| 2026-05-06 13:22 | 31.51941 | -11.48617 | 37028 ft | 404 kts | 219° |
| 2026-05-06 13:23 | 31.47471 | -11.52579 | 37047 ft | 402 kts | 220° |
| 2026-05-06 13:23 | 31.43009 | -11.56537 | 37045 ft | 401 kts | 220° |
| 2026-05-06 13:24 | 31.38588 | -11.60447 | 37046 ft | 401 kts | 220° |
| 2026-05-06 13:24 | 31.34142 | -11.64381 | 37044 ft | 400 kts | 220° |
| 2026-05-06 13:25 | 31.29697 | -11.68304 | 37043 ft | 400 kts | 219° |
| 2026-05-06 13:25 | 31.25257 | -11.72216 | 37005 ft | 399 kts | 220° |
| 2026-05-06 13:26 | 31.20827 | -11.76111 | 37043 ft | 398 kts | 220° |
| 2026-05-06 13:26 | 31.16415 | -11.79988 | 37052 ft | 396 kts | 220° |
| 2026-05-06 13:27 | 31.12019 | -11.83850 | 37052 ft | 395 kts | 220° |
| 2026-05-06 13:27 | 31.07628 | -11.87706 | 37045 ft | 395 kts | 220° |
| 2026-05-06 13:28 | 31.03239 | -11.91552 | 37044 ft | 394 kts | 220° |
| 2026-05-06 13:28 | 30.98850 | -11.95385 | 37041 ft | 394 kts | 220° |
| 2026-05-06 13:29 | 30.94468 | -11.99216 | 37036 ft | 393 kts | 220° |
| 2026-05-06 13:29 | 30.90109 | -12.03019 | 37058 ft | 390 kts | 220° |
| 2026-05-06 13:30 | 30.85769 | -12.06800 | 37048 ft | 389 kts | 220° |
| 2026-05-06 13:30 | 30.81422 | -12.10592 | 37031 ft | 390 kts | 220° |
| 2026-05-06 13:31 | 30.77068 | -12.14382 | 37025 ft | 391 kts | 220° |
| 2026-05-06 13:31 | 30.72705 | -12.18174 | 37024 ft | 392 kts | 220° |
| 2026-05-06 13:32 | 30.68337 | -12.21965 | 37024 ft | 392 kts | 220° |
| 2026-05-06 13:32 | 30.63993 | -12.25731 | 37030 ft | 391 kts | 220° |
| 2026-05-06 13:33 | 30.59653 | -12.29500 | 37066 ft | 388 kts | 220° |
| 2026-05-06 13:33 | 30.55339 | -12.33231 | 37069 ft | 386 kts | 220° |
| 2026-05-06 13:34 | 30.51039 | -12.36938 | 37068 ft | 384 kts | 220° |
| 2026-05-06 13:34 | 30.46754 | -12.40636 | 37057 ft | 383 kts | 220° |
| 2026-05-06 13:35 | 30.42453 | -12.44323 | 37029 ft | 385 kts | 219° |
| 2026-05-06 13:35 | 30.38132 | -12.48030 | 37028 ft | 387 kts | 219° |
| 2026-05-06 13:36 | 30.33796 | -12.51750 | 37008 ft | 388 kts | 219° |
| 2026-05-06 13:36 | 30.29476 | -12.55455 | 37052 ft | 385 kts | 219° |
| 2026-05-06 13:37 | 30.25173 | -12.59133 | 37061 ft | 384 kts | 219° |
| 2026-05-06 13:37 | 30.20883 | -12.62790 | 37066 ft | 382 kts | 219° |
| 2026-05-06 13:38 | 30.16605 | -12.66440 | 37066 ft | 382 kts | 219° |
| 2026-05-06 13:38 | 30.12337 | -12.70086 | 37067 ft | 381 kts | 219° |
| 2026-05-06 13:39 | 30.08065 | -12.73726 | 37052 ft | 381 kts | 219° |
| 2026-05-06 13:39 | 30.03828 | -12.77350 | 37059 ft | 381 kts | 219° |
| 2026-05-06 13:40 | 29.99558 | -12.81004 | 37022 ft | 384 kts | 219° |
| 2026-05-06 13:40 | 29.95254 | -12.84680 | 37018 ft | 386 kts | 219° |
| 2026-05-06 13:41 | 29.90925 | -12.88359 | 37019 ft | 388 kts | 219° |
| 2026-05-06 13:41 | 29.86576 | -12.92052 | 37022 ft | 389 kts | 219° |
| 2026-05-06 13:42 | 29.82224 | -12.95758 | 37026 ft | 389 kts | 219° |
| 2026-05-06 13:42 | 29.77866 | -12.99465 | 37030 ft | 390 kts | 219° |
| 2026-05-06 13:43 | 29.73497 | -13.03164 | 37026 ft | 389 kts | 219° |
| 2026-05-06 13:43 | 29.69158 | -13.06843 | 37068 ft | 386 kts | 219° |
| 2026-05-06 13:44 | 29.64864 | -13.10477 | 37075 ft | 384 kts | 219° |
| 2026-05-06 13:44 | 29.60558 | -13.14113 | 37072 ft | 383 kts | 219° |
| 2026-05-06 13:45 | 29.56251 | -13.17756 | 37034 ft | 386 kts | 219° |
| 2026-05-06 13:45 | 29.50476 | -13.22637 | 37028 ft | 388 kts | 219° |
| 2026-05-06 13:46 | 29.46116 | -13.26306 | 37030 ft | 389 kts | 219° |
| 2026-05-06 13:46 | 29.41754 | -13.29977 | 37030 ft | 388 kts | 219° |
| 2026-05-06 13:47 | 29.37409 | -13.33627 | 37062 ft | 386 kts | 219° |
| 2026-05-06 13:47 | 29.33083 | -13.37252 | 37067 ft | 384 kts | 219° |
| 2026-05-06 13:48 | 29.28769 | -13.40866 | 37064 ft | 383 kts | 219° |
| 2026-05-06 13:48 | 29.24470 | -13.44474 | 37061 ft | 383 kts | 219° |
| 2026-05-06 13:49 | 29.20174 | -13.48074 | 37055 ft | 383 kts | 219° |
| 2026-05-06 13:49 | 29.15891 | -13.51689 | 37033 ft | 383 kts | 220° |
| 2026-05-06 13:50 | 29.11799 | -13.55617 | 36996 ft | 384 kts | 223° |
| 2026-05-06 13:50 | 29.07850 | -13.59659 | 37023 ft | 383 kts | 224° |
| 2026-05-06 13:51 | 29.03859 | -13.63687 | 37035 ft | 383 kts | 223° |
| 2026-05-06 13:51 | 28.99832 | -13.67667 | 37034 ft | 382 kts | 223° |
| 2026-05-06 13:52 | 28.95796 | -13.71623 | 36917 ft | 382 kts | 223° |
| 2026-05-06 13:52 | 28.93775 | -13.73605 | 36451 ft | 383 kts | 223° |
| 2026-05-06 13:52 | 28.91760 | -13.75583 | 36001 ft | 381 kts | 223° |
| 2026-05-06 13:53 | 28.89758 | -13.77550 | 35602 ft | 380 kts | 222° |
| 2026-05-06 13:53 | 28.87755 | -13.79520 | 35212 ft | 380 kts | 222° |
| 2026-05-06 13:53 | 28.85756 | -13.81487 | 34830 ft | 380 kts | 222° |
| 2026-05-06 13:53 | 28.83757 | -13.83453 | 34452 ft | 379 kts | 222° |
| 2026-05-06 13:54 | 28.81758 | -13.85418 | 34045 ft | 379 kts | 222° |
| 2026-05-06 13:54 | 28.79757 | -13.87381 | 33641 ft | 381 kts | 222° |
| 2026-05-06 13:54 | 28.77737 | -13.89361 | 33217 ft | 384 kts | 222° |
| 2026-05-06 13:54 | 28.75704 | -13.91358 | 32796 ft | 387 kts | 222° |
| 2026-05-06 13:55 | 28.73657 | -13.93367 | 32387 ft | 390 kts | 222° |
| 2026-05-06 13:55 | 28.71587 | -13.95394 | 31979 ft | 394 kts | 222° |
| 2026-05-06 13:55 | 28.69498 | -13.97440 | 31577 ft | 397 kts | 222° |
| 2026-05-06 13:55 | 28.67399 | -13.99495 | 31181 ft | 400 kts | 222° |
| 2026-05-06 13:56 | 28.65281 | -14.01566 | 30788 ft | 403 kts | 222° |
| 2026-05-06 13:56 | 28.63144 | -14.03654 | 30405 ft | 406 kts | 222° |
| 2026-05-06 13:56 | 28.60995 | -14.05751 | 30006 ft | 409 kts | 222° |
| 2026-05-06 13:56 | 28.58854 | -14.07838 | 29550 ft | 412 kts | 222° |
| 2026-05-06 13:57 | 28.56671 | -14.09963 | 29113 ft | 415 kts | 222° |
| 2026-05-06 13:57 | 28.54469 | -14.12105 | 28678 ft | 418 kts | 222° |
| 2026-05-06 13:57 | 28.52255 | -14.14259 | 28249 ft | 419 kts | 222° |
| 2026-05-06 13:57 | 28.50045 | -14.16413 | 27798 ft | 418 kts | 222° |
| 2026-05-06 13:58 | 28.47850 | -14.18550 | 27384 ft | 412 kts | 222° |
| 2026-05-06 13:58 | 28.45677 | -14.20660 | 26981 ft | 408 kts | 222° |
| 2026-05-06 13:58 | 28.43518 | -14.22756 | 26585 ft | 410 kts | 222° |
| 2026-05-06 13:58 | 28.41336 | -14.24876 | 26188 ft | 415 kts | 222° |
| 2026-05-06 13:59 | 28.39133 | -14.27012 | 25797 ft | 417 kts | 222° |
| 2026-05-06 13:59 | 28.36926 | -14.29150 | 25407 ft | 416 kts | 222° |
| 2026-05-06 13:59 | 28.34722 | -14.31284 | 25025 ft | 416 kts | 222° |
| 2026-05-06 13:59 | 28.32517 | -14.33418 | 24650 ft | 416 kts | 222° |
| 2026-05-06 14:00 | 28.30321 | -14.35548 | 24279 ft | 415 kts | 222° |
| 2026-05-06 14:00 | 28.28125 | -14.37679 | 23850 ft | 415 kts | 222° |
| 2026-05-06 14:00 | 28.25938 | -14.39802 | 23385 ft | 414 kts | 222° |
| 2026-05-06 14:00 | 28.23753 | -14.41919 | 22877 ft | 412 kts | 222° |
| 2026-05-06 14:01 | 28.21580 | -14.44021 | 22373 ft | 409 kts | 222° |
| 2026-05-06 14:01 | 28.19450 | -14.46075 | 21887 ft | 406 kts | 222° |
| 2026-05-06 14:01 | 28.17302 | -14.48140 | 21390 ft | 403 kts | 222° |
| 2026-05-06 14:01 | 28.15178 | -14.50185 | 20916 ft | 399 kts | 222° |
| 2026-05-06 14:02 | 28.13074 | -14.52208 | 20453 ft | 396 kts | 222° |
| 2026-05-06 14:02 | 28.10983 | -14.54220 | 19985 ft | 393 kts | 222° |
| 2026-05-06 14:02 | 28.08910 | -14.56214 | 19531 ft | 390 kts | 223° |
| 2026-05-06 14:02 | 28.06853 | -14.58195 | 19083 ft | 387 kts | 223° |
| 2026-05-06 14:03 | 28.04805 | -14.60166 | 18647 ft | 386 kts | 223° |
| 2026-05-06 14:03 | 28.02763 | -14.62127 | 18190 ft | 384 kts | 223° |
| 2026-05-06 14:03 | 28.00733 | -14.64077 | 17690 ft | 381 kts | 223° |
| 2026-05-06 14:03 | 27.98841 | -14.66148 | 17205 ft | 377 kts | 229° |
| 2026-05-06 14:04 | 27.97043 | -14.68295 | 16713 ft | 375 kts | 228° |
| 2026-05-06 14:04 | 27.95251 | -14.70424 | 16236 ft | 373 kts | 228° |
| 2026-05-06 14:04 | 27.93464 | -14.72536 | 15770 ft | 371 kts | 228° |
| 2026-05-06 14:04 | 27.91687 | -14.74634 | 15307 ft | 369 kts | 228° |
| 2026-05-06 14:05 | 27.89916 | -14.76723 | 14850 ft | 367 kts | 228° |
| 2026-05-06 14:05 | 27.88155 | -14.78801 | 14401 ft | 365 kts | 228° |
| 2026-05-06 14:05 | 27.86404 | -14.80867 | 13957 ft | 363 kts | 228° |
| 2026-05-06 14:05 | 27.84660 | -14.82922 | 13474 ft | 361 kts | 228° |
| 2026-05-06 14:06 | 27.82925 | -14.84961 | 12988 ft | 358 kts | 228° |
| 2026-05-06 14:06 | 27.81204 | -14.86983 | 12501 ft | 356 kts | 228° |
| 2026-05-06 14:06 | 27.79503 | -14.88984 | 12042 ft | 350 kts | 228° |
| 2026-05-06 14:06 | 27.77838 | -14.90939 | 11726 ft | 340 kts | 228° |
| 2026-05-06 14:07 | 27.76224 | -14.92835 | 11433 ft | 331 kts | 228° |
| 2026-05-06 14:07 | 27.74652 | -14.94684 | 11143 ft | 323 kts | 228° |
| 2026-05-06 14:07 | 27.73113 | -14.96494 | 10854 ft | 315 kts | 228° |
| 2026-05-06 14:07 | 27.71612 | -14.98261 | 10558 ft | 309 kts | 229° |
| 2026-05-06 14:08 | 27.70175 | -14.99994 | 10288 ft | 302 kts | 233° |
| 2026-05-06 14:08 | 27.69106 | -15.01988 | 10009 ft | 294 kts | 246° |
| 2026-05-06 14:08 | 27.68217 | -15.04045 | 9697 ft | 287 kts | 245° |
| 2026-05-06 14:08 | 27.67353 | -15.06031 | 9388 ft | 277 kts | 245° |
| 2026-05-06 14:09 | 27.66507 | -15.07966 | 9084 ft | 273 kts | 246° |
| 2026-05-06 14:09 | 27.65674 | -15.09865 | 8836 ft | 267 kts | 245° |
| 2026-05-06 14:09 | 27.64863 | -15.11715 | 8634 ft | 259 kts | 246° |
| 2026-05-06 14:09 | 27.64134 | -15.13536 | 8429 ft | 250 kts | 255° |
| 2026-05-06 14:10 | 27.63901 | -15.15433 | 8228 ft | 241 kts | 274° |
| 2026-05-06 14:10 | 27.64217 | -15.17253 | 8031 ft | 235 kts | 291° |
| 2026-05-06 14:10 | 27.64825 | -15.18963 | 7762 ft | 234 kts | 292° |
| 2026-05-06 14:10 | 27.65425 | -15.20664 | 7421 ft | 234 kts | 292° |
| 2026-05-06 14:11 | 27.66021 | -15.22367 | 7090 ft | 233 kts | 292° |
| 2026-05-06 14:11 | 27.66614 | -15.24066 | 6756 ft | 232 kts | 292° |
| 2026-05-06 14:11 | 27.67197 | -15.25735 | 6430 ft | 232 kts | 292° |
| 2026-05-06 14:11 | 27.67798 | -15.27442 | 6071 ft | 231 kts | 292° |
| 2026-05-06 14:12 | 27.68380 | -15.29097 | 5816 ft | 227 kts | 293° |
| 2026-05-06 14:12 | 27.68954 | -15.30738 | 5564 ft | 222 kts | 292° |
| 2026-05-06 14:12 | 27.69517 | -15.32354 | 5320 ft | 220 kts | 293° |
| 2026-05-06 14:12 | 27.70078 | -15.33960 | 5056 ft | 220 kts | 293° |
| 2026-05-06 14:13 | 27.70637 | -15.35562 | 4794 ft | 218 kts | 293° |
| 2026-05-06 14:13 | 27.71193 | -15.37153 | 4517 ft | 218 kts | 294° |
| 2026-05-06 14:13 | 27.71742 | -15.38725 | 4365 ft | 210 kts | 294° |
| 2026-05-06 14:13 | 27.72262 | -15.40215 | 4252 ft | 200 kts | 294° |
| 2026-05-06 14:14 | 27.72789 | -15.41656 | 4009 ft | 197 kts | 300° |
| 2026-05-06 14:14 | 27.73597 | -15.42881 | 3744 ft | 194 kts | 318° |
| 2026-05-06 14:14 | 27.74702 | -15.43742 | 3456 ft | 193 kts | 336° |
| 2026-05-06 14:14 | 27.75918 | -15.44359 | 3408 ft | 192 kts | 336° |
| 2026-05-06 14:15 | 27.77137 | -15.44950 | 3327 ft | 187 kts | 345° |
| 2026-05-06 14:15 | 27.78382 | -15.45071 | 3221 ft | 176 kts | 6° |
| 2026-05-06 14:15 | 27.79547 | -15.44682 | 2940 ft | 172 kts | 21° |
| 2026-05-06 14:15 | 27.80631 | -15.44198 | 2683 ft | 162 kts | 21° |
| 2026-05-06 14:16 | 27.81664 | -15.43742 | 2452 ft | 156 kts | 21° |
| 2026-05-06 14:16 | 27.82662 | -15.43303 | 2228 ft | 151 kts | 22° |
| 2026-05-06 14:16 | 27.83644 | -15.42870 | 1999 ft | 152 kts | 22° |
| 2026-05-06 14:16 | 27.84630 | -15.42435 | 1767 ft | 153 kts | 22° |
| 2026-05-06 14:17 | 27.85588 | -15.42013 | 1534 ft | 141 kts | 22° |
| 2026-05-06 14:17 | 27.86482 | -15.41619 | 1349 ft | 134 kts | 22° |
| 2026-05-06 14:17 | 27.87332 | -15.41245 | 1156 ft | 130 kts | 23° |
| 2026-05-06 14:17 | 27.88182 | -15.40871 | 961 ft | 131 kts | 24° |
| 2026-05-06 14:18 | 27.89028 | -15.40492 | 764 ft | 132 kts | 25° |
| 2026-05-06 14:18 | 27.89866 | -15.40122 | 571 ft | 129 kts | 23° |
| 2026-05-06 14:18 | 27.90710 | -15.39755 | 386 ft | 129 kts | 24° |
| 2026-05-06 14:18 | 27.91538 | -15.39388 | 204 ft | 129 kts | 23° |
| 2026-05-06 14:19 | 27.92362 | -15.39015 | 72 ft | 116 kts | 22° |
| 2026-05-06 14:19 | 27.92943 | -15.38766 | 59 ft | 65 kts | 21° |
| 2026-05-06 14:19 | 27.93131 | -15.38717 | 65 ft | 19 kts | 360° |
| 2026-05-06 14:19 | 27.93257 | -15.38736 | 69 ft | 17 kts | 351° |
| 2026-05-06 14:20 | 27.93322 | -15.38747 | 73 ft | 7 kts | 351° |
| 2026-05-06 14:20 | 27.93338 | -15.38750 | 73 ft | 0 kts | 351° |
| 2026-05-06 14:21 | 27.93345 | -15.38751 | 74 ft | 5 kts | 351° |
| 2026-05-06 14:22 | 27.93384 | -15.38758 | 76 ft | 6 kts | 352° |
| 2026-05-06 14:22 | 27.93422 | -15.38790 | 75 ft | 5 kts | 300° |
| 2026-05-06 14:22 | 27.93438 | -15.38836 | 85 ft | 0 kts | 290° |
| 2026-05-06 14:23 | 27.93445 | -15.38854 | 83 ft | 8 kts | 297° |
| 2026-05-06 14:23 | 27.93487 | -15.38875 | 83 ft | 6 kts | 5° |
| 2026-05-06 14:23 | 27.93548 | -15.38856 | 84 ft | 11 kts | 17° |
| 2026-05-06 14:23 | 27.93629 | -15.38821 | 88 ft | 14 kts | 21° |
| 2026-05-06 14:24 | 27.93714 | -15.38784 | 84 ft | 10 kts | 21° |
| 2026-05-06 14:24 | 27.93752 | -15.38793 | 88 ft | 6 kts | 300° |
| 2026-05-06 14:24 | 27.93765 | -15.38831 | 85 ft | 4 kts | 290° |
| 2026-05-06 14:24 | 27.93772 | -15.38851 | 86 ft | 2 kts | 291° |
| 2026-05-06 14:25 | 27.93774 | -15.38857 | 85 ft | 0 kts | 291° |